Time;durP1;ratioP1;P1;durP2;ratioP2;P2;SDS_P1;SDS_P2;PMS_P1;PMS_P2;Temp;Humidity;BMP_temperature;BMP_pressure;BME280_temperature;BME280_humidity;BME280_pressure;Samples;Min_cycle;Max_cycle;Signal;HPM_P1;HPM_P2
2021/07/10 00:02:31;;;;;;;0.30;0.10;;;;;;;16.42;71.45;100422.50;125741;1093;22800;-62
2021/07/10 00:05:04;;;;;;;1.10;0.10;;;;;;;16.39;71.32;100426.33;125928;1092;22815;-62
2021/07/10 00:07:36;;;;;;;0.80;0.20;;;;;;;16.38;71.53;100421.22;125650;1093;22880;-63
2021/07/10 00:10:11;;;;;;;1.25;0.20;;;;;;;16.36;71.72;100426.60;125970;1092;22718;-62
2021/07/10 00:12:43;;;;;;;2.15;0.30;;;;;;;16.34;71.63;100429.94;125917;1093;22877;-62
2021/07/10 00:15:20;;;;;;;0.50;0.20;;;;;;;16.35;71.43;100427.88;125748;1092;22781;-61
2021/07/10 00:17:52;;;;;;;1.45;0.20;;;;;;;16.32;71.12;100443.78;125817;1093;26242;-62
2021/07/10 00:20:24;;;;;;;2.65;0.20;;;;;;;16.31;71.71;100441.45;125892;1093;22787;-61
2021/07/10 00:22:56;;;;;;;2.00;0.20;;;;;;;16.29;71.75;100444.02;125746;1093;22806;-61
2021/07/10 00:25:29;;;;;;;0.55;0.20;;;;;;;16.25;71.65;100446.33;125738;1093;23634;-62
2021/07/10 00:28:01;;;;;;;0.77;0.10;;;;;;;16.23;71.70;100441.21;125726;1093;22794;-62
2021/07/10 00:30:34;;;;;;;2.35;0.20;;;;;;;16.20;71.90;100436.63;125830;1092;27211;-62
2021/07/10 00:33:07;;;;;;;2.15;0.40;;;;;;;16.16;71.68;100431.23;125798;1093;27348;-62
2021/07/10 00:35:40;;;;;;;1.10;0.20;;;;;;;16.14;72.00;100425.34;125782;1093;22761;-61
2021/07/10 00:38:11;;;;;;;0.60;0.20;;;;;;;16.12;71.88;100429.94;125767;1093;24430;-64
2021/07/10 00:40:46;;;;;;;1.07;0.30;;;;;;;16.10;71.97;100424.05;125884;1093;22787;-63
2021/07/10 00:43:18;;;;;;;0.90;0.30;;;;;;;16.09;72.05;100420.49;125909;1092;22791;-63
2021/07/10 00:45:50;;;;;;;2.10;0.30;;;;;;;16.09;72.00;100423.31;125818;1093;24607;-62
2021/07/10 00:48:23;;;;;;;0.45;0.20;;;;;;;16.10;72.07;100413.56;126124;1093;24288;-61
2021/07/10 00:51:03;;;;;;;0.85;0.30;;;;;;;16.10;72.11;100424.05;126000;1092;22772;-62
2021/07/10 00:53:35;;;;;;;0.40;0.20;;;;;;;16.10;72.10;100421.23;125932;1093;26251;-62
2021/07/10 00:56:09;;;;;;;0.70;0.30;;;;;;;16.11;72.28;100431.23;125830;1093;22788;-62
2021/07/10 00:58:41;;;;;;;0.90;0.30;;;;;;;16.11;72.31;100434.83;126049;1092;27485;-62
2021/07/10 01:01:12;;;;;;;0.65;0.30;;;;;;;16.12;72.31;100429.94;125764;1092;27196;-60
2021/07/10 01:03:46;;;;;;;1.05;0.30;;;;;;;16.13;72.59;100423.82;126051;1093;22784;-63
2021/07/10 01:06:18;;;;;;;0.80;0.30;;;;;;;16.15;72.54;100417.66;125871;1093;27169;-61
2021/07/10 01:08:51;;;;;;;1.05;0.40;;;;;;;16.15;72.25;100428.93;126084;1093;22794;-62
2021/07/10 01:11:23;;;;;;;3.67;0.30;;;;;;;16.15;72.51;100426.11;125884;1093;25755;-61
2021/07/10 01:13:55;;;;;;;0.60;0.30;;;;;;;16.16;72.53;100419.19;125936;1092;22815;-61
2021/07/10 01:16:26;;;;;;;6.05;0.40;;;;;;;16.17;72.61;100420.73;125960;1092;24358;-62
2021/07/10 01:18:59;;;;;;;1.00;0.30;;;;;;;16.16;72.37;100411.51;125864;1093;22794;-61
2021/07/10 01:21:33;;;;;;;0.50;0.20;;;;;;;16.17;72.44;100413.06;125973;1092;22856;-62
2021/07/10 01:24:06;;;;;;;0.90;0.30;;;;;;;16.19;72.62;100412.53;125768;1093;22761;-62
2021/07/10 01:26:37;;;;;;;2.50;0.20;;;;;;;16.22;72.21;100416.38;125806;1093;22847;-62
2021/07/10 01:29:09;;;;;;;0.65;0.20;;;;;;;16.25;72.26;100426.61;125679;1093;25864;-62
2021/07/10 01:31:41;;;;;;;1.45;0.30;;;;;;;16.27;72.37;100424.81;125674;1093;22819;-61
2021/07/10 01:34:12;;;;;;;0.50;0.20;;;;;;;16.29;72.64;100425.07;125622;1092;22888;-61
2021/07/10 01:36:44;;;;;;;2.67;0.30;;;;;;;16.31;72.42;100428.14;125998;1092;24455;-61
2021/07/10 01:39:17;;;;;;;0.90;0.30;;;;;;;16.31;72.29;100422.50;125931;1093;22794;-63
2021/07/10 01:41:53;;;;;;;3.00;0.30;;;;;;;16.34;72.44;100432.76;125775;1091;22780;-63
2021/07/10 01:44:25;;;;;;;1.15;0.20;;;;;;;16.35;72.30;100437.09;125683;1093;25884;-62
2021/07/10 01:46:56;;;;;;;3.00;0.20;;;;;;;16.38;72.55;100441.72;125712;1093;22794;-63
2021/07/10 01:49:28;;;;;;;1.50;0.20;;;;;;;16.39;72.12;100445.31;125711;1092;22803;-62
2021/07/10 01:52:04;;;;;;;2.45;0.25;;;;;;;16.39;72.41;100442.49;125705;1092;22806;-62
2021/07/10 01:54:37;;;;;;;0.80;0.20;;;;;;;16.40;72.52;100453.24;125704;1093;26470;-61
2021/07/10 01:57:11;;;;;;;1.10;0.30;;;;;;;16.41;72.23;100460.40;125672;1093;22778;-61
2021/07/10 01:59:43;;;;;;;0.70;0.20;;;;;;;16.41;72.22;100459.66;125725;1093;22865;-61
2021/07/10 02:02:16;;;;;;;0.80;0.30;;;;;;;16.42;72.54;100473.22;125637;1093;22800;-61
2021/07/10 02:04:50;;;;;;;2.05;0.20;;;;;;;16.43;72.48;100473.99;125821;1093;23060;-62
2021/07/10 02:07:23;;;;;;;1.00;0.30;;;;;;;16.44;72.58;100481.15;125745;1093;22775;-61
2021/07/10 02:09:54;;;;;;;3.00;0.30;;;;;;;16.46;72.15;100487.04;125819;1093;22764;-61
2021/07/10 02:12:25;;;;;;;1.67;0.20;;;;;;;16.45;72.64;100486.27;125690;1093;26006;-63
2021/07/10 02:14:57;;;;;;;1.57;0.40;;;;;;;16.46;72.26;100493.45;125840;1093;22838;-62
2021/07/10 02:17:28;;;;;;;1.00;0.40;;;;;;;16.46;72.16;100503.95;125774;1093;22815;-62
2021/07/10 02:20:02;;;;;;;2.13;0.20;;;;;;;16.47;72.24;100503.42;125673;1092;23241;-62
2021/07/10 02:22:35;;;;;;;0.40;0.20;;;;;;;16.46;72.20;100504.72;125957;1092;25466;-62
2021/07/10 02:25:10;;;;;;;0.80;0.20;;;;;;;16.45;72.52;100497.53;125855;1093;22751;-61
2021/07/10 02:27:42;;;;;;;1.85;0.20;;;;;;;16.47;72.48;100497.79;125746;1093;23077;-62
2021/07/10 02:30:17;;;;;;;0.50;0.20;;;;;;;16.47;72.51;100500.61;125961;1093;22773;-61
2021/07/10 02:32:50;;;;;;;1.90;0.20;;;;;;;16.48;72.63;100493.70;125963;1093;25839;-63
2021/07/10 02:35:22;;;;;;;1.75;0.20;;;;;;;16.48;72.47;100498.56;125863;1093;22800;-61
2021/07/10 02:37:55;;;;;;;1.40;0.33;;;;;;;16.47;72.44;100502.68;125731;1093;22780;-62
2021/07/10 02:40:27;;;;;;;1.45;0.40;;;;;;;16.48;72.31;100498.56;125782;1093;27641;-61
2021/07/10 02:42:59;;;;;;;1.15;0.30;;;;;;;16.48;72.47;100496.52;125824;1093;26523;-63
2021/07/10 02:45:33;;;;;;;1.55;0.20;;;;;;;16.50;72.47;100498.84;125982;1092;22833;-62
2021/07/10 02:48:06;;;;;;;1.50;0.20;;;;;;;16.49;72.50;100503.70;126016;1093;22804;-63
2021/07/10 02:50:40;;;;;;;1.23;0.30;;;;;;;16.49;72.76;100498.08;125782;1093;22797;-62
2021/07/10 02:53:12;;;;;;;1.45;0.25;;;;;;;16.49;72.78;100508.57;125933;1093;26252;-62
2021/07/10 02:55:44;;;;;;;1.50;0.30;;;;;;;16.48;72.74;100496.52;125749;1093;22797;-62
2021/07/10 02:58:15;;;;;;;3.10;0.30;;;;;;;16.49;72.48;100502.94;125952;1093;26251;-62
2021/07/10 03:00:47;;;;;;;2.13;0.20;;;;;;;16.50;72.64;100498.84;125732;1093;22770;-63
2021/07/10 03:03:18;;;;;;;2.50;0.30;;;;;;;16.49;72.94;100495.25;125868;1093;22774;-61
2021/07/10 03:05:52;;;;;;;1.33;0.30;;;;;;;16.49;72.88;100486.03;125864;1092;25469;-62
2021/07/10 03:08:23;;;;;;;1.55;0.40;;;;;;;16.49;72.73;100486.80;125810;1092;22781;-61
2021/07/10 03:10:56;;;;;;;2.45;0.30;;;;;;;16.49;72.99;100486.03;125687;1093;26734;-63
2021/07/10 03:13:27;;;;;;;2.10;0.20;;;;;;;16.49;73.11;100483.20;125832;1093;22745;-61
2021/07/10 03:15:59;;;;;;;0.75;0.20;;;;;;;16.48;72.76;100485.25;125684;1093;22784;-62
2021/07/10 03:18:32;;;;;;;0.65;0.30;;;;;;;16.48;72.64;100485.25;125809;1092;22873;-62
2021/07/10 03:21:04;;;;;;;1.47;0.40;;;;;;;16.49;72.75;100480.39;125873;1093;24501;-61
2021/07/10 03:23:37;;;;;;;2.35;0.30;;;;;;;16.49;72.80;100491.66;125933;1093;22806;-62
2021/07/10 03:26:08;;;;;;;0.90;0.30;;;;;;;16.48;72.93;100490.88;125770;1093;22905;-62
2021/07/10 03:28:44;;;;;;;0.80;0.30;;;;;;;16.48;73.07;100498.56;125903;1093;22774;-64
2021/07/10 03:31:15;;;;;;;1.00;0.40;;;;;;;16.49;72.84;100503.70;125758;1093;25830;-62
2021/07/10 03:33:47;;;;;;;2.55;0.40;;;;;;;16.49;72.68;100506.53;125778;1093;22812;-62
2021/07/10 03:36:19;;;;;;;1.40;0.40;;;;;;;16.50;73.05;100505.27;125715;1093;22965;-61
2021/07/10 03:38:51;;;;;;;2.45;0.50;;;;;;;16.51;72.82;100501.14;125687;1093;22812;-61
2021/07/10 03:41:24;;;;;;;1.10;0.40;;;;;;;16.53;72.64;100512.67;125897;1093;25100;-62
2021/07/10 03:43:56;;;;;;;1.80;0.50;;;;;;;16.53;72.69;100507.03;125721;1093;22787;-63
2021/07/10 03:46:27;;;;;;;1.57;0.50;;;;;;;16.54;72.75;100514.22;125703;1092;22768;-61
2021/07/10 03:48:59;;;;;;;1.20;0.50;;;;;;;16.56;72.89;100513.70;125688;1092;22918;-62
2021/07/10 03:51:31;;;;;;;1.53;0.40;;;;;;;16.56;72.79;100508.06;125683;1093;22777;-64
2021/07/10 03:54:03;;;;;;;1.55;0.50;;;;;;;16.56;72.46;100519.34;125767;1093;22788;-62
2021/07/10 03:56:34;;;;;;;1.23;0.40;;;;;;;16.57;72.58;100513.20;125784;1093;22803;-62
2021/07/10 03:59:06;;;;;;;1.17;0.40;;;;;;;16.58;72.20;100519.59;125736;1093;22767;-61
2021/07/10 04:01:41;;;;;;;0.90;0.50;;;;;;;16.58;72.81;100513.95;125774;1092;27211;-61
2021/07/10 04:04:12;;;;;;;2.10;0.50;;;;;;;16.58;72.44;100519.59;125662;1093;25963;-61
2021/07/10 04:06:44;;;;;;;2.30;0.60;;;;;;;16.58;72.38;100523.19;125691;1093;22769;-62
2021/07/10 04:09:15;;;;;;;2.40;0.70;;;;;;;16.58;72.75;100522.41;125703;1093;22825;-61
2021/07/10 04:11:48;;;;;;;3.05;0.60;;;;;;;16.58;72.25;100528.82;125640;1093;22874;-62
2021/07/10 04:14:22;;;;;;;3.20;0.60;;;;;;;16.56;72.33;100528.56;125795;1091;22803;-62
2021/07/10 04:16:53;;;;;;;1.35;0.50;;;;;;;16.58;72.71;100531.64;125736;1092;22780;-61
2021/07/10 04:19:25;;;;;;;6.30;0.70;;;;;;;16.58;72.45;100523.19;125684;1093;22800;-61
2021/07/10 04:21:57;;;;;;;3.55;0.60;;;;;;;16.59;72.60;100532.42;125604;1093;22810;-62
2021/07/10 04:24:29;;;;;;;1.20;0.50;;;;;;;16.57;72.45;100520.89;125684;1093;23045;-63
2021/07/10 04:27:01;;;;;;;4.45;0.70;;;;;;;16.58;72.55;100528.05;125672;1092;25864;-61
2021/07/10 04:29:34;;;;;;;2.35;0.70;;;;;;;16.59;72.47;100518.33;125892;1093;26245;-63
2021/07/10 04:32:07;;;;;;;2.63;0.70;;;;;;;16.62;72.61;100520.09;126027;1092;22754;-61
2021/07/10 04:34:39;;;;;;;2.65;0.80;;;;;;;16.63;72.79;100530.88;125758;1093;22917;-63
2021/07/10 04:37:10;;;;;;;5.50;0.70;;;;;;;16.66;72.66;100529.06;125655;1093;26513;-62
2021/07/10 04:39:43;;;;;;;4.60;0.70;;;;;;;16.69;72.51;100533.69;125861;1093;22785;-60
2021/07/10 04:42:15;;;;;;;1.90;0.60;;;;;;;16.72;72.46;100536.23;125926;1093;27182;-61
2021/07/10 04:44:47;;;;;;;1.90;0.80;;;;;;;16.76;72.74;100536.73;125792;1093;22787;-62
2021/07/10 04:47:18;;;;;;;2.75;0.60;;;;;;;16.77;72.67;100535.47;125744;1093;22790;-63
2021/07/10 04:49:50;;;;;;;5.00;0.70;;;;;;;16.80;72.78;100528.78;125800;1093;25864;-62
2021/07/10 04:52:23;;;;;;;2.60;0.80;;;;;;;16.81;72.68;100538.80;125828;1093;22815;-62
2021/07/10 04:54:55;;;;;;;3.03;1.00;;;;;;;16.81;72.57;100527.52;125799;1093;25947;-62
2021/07/10 04:57:26;;;;;;;2.60;0.90;;;;;;;16.80;72.46;100530.86;125952;1093;22699;-63
2021/07/10 04:59:58;;;;;;;3.80;0.80;;;;;;;16.81;72.83;100535.97;125788;1092;22761;-63
2021/07/10 05:02:29;;;;;;;3.17;0.93;;;;;;;16.87;72.55;100530.31;125790;1093;24267;-62
2021/07/10 05:05:01;;;;;;;2.80;0.70;;;;;;;16.94;72.49;100530.58;125841;1093;22742;-62
2021/07/10 05:07:33;;;;;;;5.05;0.70;;;;;;;17.04;72.55;100533.88;125776;1092;27705;-61
2021/07/10 05:10:06;;;;;;;5.80;0.90;;;;;;;17.11;72.47;100532.58;125801;1093;22914;-63
2021/07/10 05:12:38;;;;;;;1.95;0.75;;;;;;;17.13;72.29;100532.83;125815;1092;26284;-61
2021/07/10 05:15:14;;;;;;;3.20;0.60;;;;;;;17.12;71.87;100534.09;125959;1093;22847;-62
2021/07/10 05:17:46;;;;;;;3.75;0.80;;;;;;;17.10;71.97;100528.20;126103;1093;22874;-62
2021/07/10 05:20:19;;;;;;;2.85;0.80;;;;;;;17.11;72.13;100541.04;125998;1092;24583;-63
2021/07/10 05:22:50;;;;;;;2.50;0.80;;;;;;;17.11;71.93;100538.97;126110;1093;22769;-62
2021/07/10 05:25:22;;;;;;;2.33;0.77;;;;;;;17.11;72.32;100538.97;125990;1093;28516;-62
2021/07/10 05:27:53;;;;;;;3.33;0.87;;;;;;;17.13;72.13;100542.06;126020;1092;22800;-63
2021/07/10 05:30:25;;;;;;;2.95;0.80;;;;;;;17.15;72.14;100541.54;125842;1093;24467;-63
2021/07/10 05:32:56;;;;;;;5.10;0.90;;;;;;;17.19;72.06;100545.64;126167;1093;25983;-61
2021/07/10 05:35:28;;;;;;;2.40;0.70;;;;;;;17.24;71.77;100549.70;126133;1093;22758;-63
2021/07/10 05:38:00;;;;;;;2.70;0.70;;;;;;;17.25;71.91;100545.61;125779;1093;22794;-63
2021/07/10 05:40:32;;;;;;;6.95;0.80;;;;;;;17.29;71.65;100551.75;126133;1093;22842;-65
2021/07/10 05:43:04;;;;;;;6.20;0.80;;;;;;;17.34;71.95;100553.80;125918;1091;22944;-63
2021/07/10 05:45:36;;;;;;;3.95;0.80;;;;;;;17.37;71.17;100561.21;125941;1092;23474;-62
2021/07/10 05:48:08;;;;;;;3.10;0.65;;;;;;;17.38;71.32;100565.59;125829;1093;22860;-62
2021/07/10 05:50:40;;;;;;;1.93;0.60;;;;;;;17.39;71.36;100565.05;126072;1093;22812;-62
2021/07/10 05:53:12;;;;;;;3.27;0.60;;;;;;;17.40;71.31;100571.48;125888;1093;22822;-61
2021/07/10 05:55:44;;;;;;;2.75;0.80;;;;;;;17.42;71.15;100577.38;125888;1092;25865;-61
2021/07/10 05:58:15;;;;;;;3.80;0.70;;;;;;;17.42;71.42;100578.12;125884;1093;22818;-62
2021/07/10 06:00:48;;;;;;;5.10;0.60;;;;;;;17.43;70.65;100584.53;125891;1093;25868;-61
2021/07/10 06:03:19;;;;;;;4.10;0.70;;;;;;;17.42;70.64;100589.41;125839;1092;25848;-62
2021/07/10 06:05:51;;;;;;;3.55;0.60;;;;;;;17.41;71.08;100592.75;125913;1093;22863;-61
2021/07/10 06:08:22;;;;;;;2.55;0.90;;;;;;;17.39;71.00;100596.10;125837;1093;22813;-62
2021/07/10 06:10:54;;;;;;;1.80;0.60;;;;;;;17.40;70.79;100596.88;125853;1093;22758;-62
2021/07/10 06:13:27;;;;;;;2.10;0.60;;;;;;;17.40;71.17;100597.63;125845;1093;26318;-62
2021/07/10 06:15:59;;;;;;;3.00;0.80;;;;;;;17.40;70.95;100602.52;125948;1092;22831;-63
2021/07/10 06:18:33;;;;;;;2.43;0.70;;;;;;;17.38;71.18;100599.45;125700;1093;22787;-61
2021/07/10 06:21:05;;;;;;;1.90;0.70;;;;;;;17.39;71.35;100598.16;125901;1093;25871;-61
2021/07/10 06:23:39;;;;;;;4.50;1.10;;;;;;;17.38;71.21;100600.20;125888;1093;22790;-62
2021/07/10 06:26:10;;;;;;;4.40;0.90;;;;;;;17.39;70.92;100600.97;125721;1092;26238;-59
2021/07/10 06:28:42;;;;;;;3.85;0.70;;;;;;;17.40;71.07;100613.81;126466;1093;23428;-60
2021/07/10 06:31:14;;;;;;;3.40;0.85;;;;;;;17.43;71.36;100607.12;126033;1093;22808;-61
2021/07/10 06:33:47;;;;;;;4.80;0.90;;;;;;;17.49;71.19;100599.40;125973;1093;22845;-61
2021/07/10 06:36:19;;;;;;;3.10;0.75;;;;;;;17.55;71.04;100609.41;127953;1093;22761;-61
2021/07/10 06:38:51;;;;;;;3.85;1.00;;;;;;;17.61;70.61;100607.34;125865;1093;22780;-61
2021/07/10 06:41:22;;;;;;;3.25;0.80;;;;;;;17.67;70.67;100607.34;125950;1093;24465;-62
2021/07/10 06:43:57;;;;;;;2.00;0.70;;;;;;;17.73;70.54;100608.83;125804;1093;22851;-61
2021/07/10 06:46:30;;;;;;;2.20;0.65;;;;;;;17.81;70.56;100611.89;127211;1093;22790;-61
2021/07/10 06:49:02;;;;;;;2.75;0.75;;;;;;;17.91;70.64;100612.35;125930;1093;25822;-62
2021/07/10 06:51:34;;;;;;;4.80;1.20;;;;;;;18.01;71.07;100613.58;125755;1093;22752;-64
2021/07/10 06:54:06;;;;;;;3.70;0.80;;;;;;;18.12;70.69;100602.22;125717;1093;22791;-63
2021/07/10 06:56:37;;;;;;;2.77;0.70;;;;;;;18.24;69.88;100612.94;125891;1093;22790;-64
2021/07/10 06:59:11;;;;;;;3.83;0.87;;;;;;;18.40;70.07;100608.45;125772;1093;22917;-63
2021/07/10 07:01:44;;;;;;;2.47;0.70;;;;;;;18.54;69.68;100596.03;125801;1093;22848;-63
2021/07/10 07:04:15;;;;;;;2.67;0.63;;;;;;;18.62;68.86;100591.38;125681;1093;22848;-64
2021/07/10 07:06:48;;;;;;;4.80;0.70;;;;;;;18.70;69.03;100594.38;125879;1093;22862;-64
2021/07/10 07:09:19;;;;;;;2.15;0.60;;;;;;;18.79;68.70;100591.98;125809;1093;22857;-64
2021/07/10 07:11:51;;;;;;;4.03;0.70;;;;;;;18.97;69.22;100594.14;125714;1092;22745;-64
2021/07/10 07:14:23;;;;;;;1.23;0.50;;;;;;;19.14;68.39;100596.81;125864;1092;24315;-65
2021/07/10 07:16:58;;;;;;;3.20;0.63;;;;;;;19.25;67.50;100594.63;125445;1093;22791;-64
2021/07/10 07:19:31;;;;;;;1.85;0.70;;;;;;;19.32;67.71;100596.88;125822;1093;28417;-64
2021/07/10 07:22:03;;;;;;;2.80;0.50;;;;;;;19.38;67.44;100596.05;125822;1093;22794;-64
2021/07/10 07:24:36;;;;;;;2.08;0.50;;;;;;;19.42;66.94;100591.63;125791;1093;23093;-65
2021/07/10 07:27:09;;;;;;;2.90;0.50;;;;;;;19.46;66.54;100599.82;125718;1092;24224;-65
2021/07/10 07:29:40;;;;;;;2.58;0.60;;;;;;;19.50;66.25;100606.73;125666;1093;22874;-65
2021/07/10 07:32:13;;;;;;;1.93;0.70;;;;;;;19.51;66.49;100605.44;125672;1092;22807;-64
2021/07/10 07:34:47;;;;;;;1.83;0.50;;;;;;;19.56;66.39;100598.16;125716;1093;22791;-65
2021/07/10 07:37:20;;;;;;;2.88;0.70;;;;;;;19.58;66.56;100598.39;125574;1093;22770;-62
2021/07/10 07:39:51;;;;;;;1.67;0.43;;;;;;;19.60;65.66;100605.06;125684;1093;23499;-64
2021/07/10 07:42:22;;;;;;;2.35;0.50;;;;;;;19.57;65.93;100597.64;125467;1093;28811;-63
2021/07/10 07:44:54;;;;;;;6.35;0.50;;;;;;;19.59;66.28;100609.20;125408;1092;22803;-61
2021/07/10 07:47:26;;;;;;;5.83;0.60;;;;;;;19.62;66.04;100610.95;125559;1092;22764;-61
2021/07/10 07:49:58;;;;;;;1.58;0.50;;;;;;;19.59;65.43;100609.20;125815;1093;22851;-63
2021/07/10 07:52:30;;;;;;;4.68;0.50;;;;;;;19.55;65.82;100597.41;125733;1092;22768;-62
2021/07/10 07:55:02;;;;;;;1.97;0.43;;;;;;;19.53;64.86;100605.67;125849;1093;22770;-62
2021/07/10 07:57:34;;;;;;;2.17;0.50;;;;;;;19.51;65.31;100607.50;125835;1093;22806;-74
2021/07/10 08:00:08;;;;;;;0.80;0.30;;;;;;;19.53;64.78;100617.00;126351;1093;25652;-61
2021/07/10 08:02:39;;;;;;;3.25;0.60;;;;;;;19.54;64.95;100607.19;125968;1093;22764;-62
2021/07/10 08:05:12;;;;;;;1.43;0.40;;;;;;;19.57;65.07;100608.20;125612;1092;22764;-61
2021/07/10 08:07:44;;;;;;;2.63;0.50;;;;;;;19.61;64.27;100609.44;126188;1093;22797;-62
2021/07/10 08:10:18;;;;;;;2.58;0.60;;;;;;;19.66;64.43;100607.81;125658;1093;23531;-63
2021/07/10 08:12:51;;;;;;;5.85;0.45;;;;;;;19.71;64.63;100612.66;125736;1093;26901;-62
2021/07/10 08:15:24;;;;;;;1.13;0.38;;;;;;;19.78;64.45;100607.14;125803;1092;22770;-62
2021/07/10 08:17:56;;;;;;;2.67;0.33;;;;;;;19.88;63.82;100611.16;126095;1092;22981;-62
2021/07/10 08:20:27;;;;;;;2.00;0.40;;;;;;;19.92;63.02;100608.02;125815;1093;23489;-62
2021/07/10 08:22:59;;;;;;;2.03;0.30;;;;;;;19.94;63.08;100609.02;125666;1093;26302;-62
2021/07/10 08:25:31;;;;;;;3.25;0.58;;;;;;;19.94;63.05;100603.34;125701;1093;22763;-62
2021/07/10 08:28:03;;;;;;;2.80;0.50;;;;;;;19.94;62.86;100611.08;125781;1093;22761;-62
2021/07/10 08:30:35;;;;;;;4.50;0.50;;;;;;;19.96;63.52;100614.14;125769;1093;22761;-62
2021/07/10 08:33:06;;;;;;;0.83;0.30;;;;;;;19.99;63.19;100610.99;125889;1092;22765;-62
2021/07/10 08:35:38;;;;;;;2.68;0.48;;;;;;;20.06;62.58;100613.23;125732;1093;22783;-61
2021/07/10 08:38:09;;;;;;;1.08;0.40;;;;;;;20.10;62.68;100613.69;125653;1093;25826;-62
2021/07/10 08:40:41;;;;;;;2.35;0.40;;;;;;;20.22;62.12;100614.31;125813;1093;22873;-63
2021/07/10 08:43:15;;;;;;;1.90;0.35;;;;;;;20.32;62.30;100606.20;125701;1093;22790;-67
2021/07/10 08:45:49;;;;;;;1.05;0.40;;;;;;;20.41;62.15;100605.78;126530;1093;27587;-68
2021/07/10 08:48:37;;;;;;;1.55;0.33;;;;;;;20.55;61.38;100613.81;125565;1092;24466;-66
2021/07/10 08:51:10;;;;;;;0.93;0.20;;;;;;;20.69;61.74;100612.55;125993;1093;22767;-64
2021/07/10 08:53:45;;;;;;;2.93;0.45;;;;;;;20.80;61.21;100615.20;125580;1093;22764;-62
2021/07/10 08:56:16;;;;;;;1.20;0.35;;;;;;;20.81;60.52;100613.14;125797;1093;22780;-63
2021/07/10 08:58:48;;;;;;;2.17;0.33;;;;;;;20.81;60.08;100613.92;125694;1092;22777;-64
2021/07/10 09:01:20;;;;;;;1.37;0.40;;;;;;;20.86;60.48;100598.85;125729;1093;22761;-63
2021/07/10 09:03:54;;;;;;;1.90;0.40;;;;;;;20.96;61.07;100597.13;125868;1093;22748;-65
2021/07/10 09:06:26;;;;;;;1.05;0.40;;;;;;;21.10;60.81;100595.12;125760;1093;22810;-66
2021/07/10 09:08:57;;;;;;;3.07;0.43;;;;;;;21.21;60.62;100594.89;125803;1093;22776;-66
2021/07/10 09:11:28;;;;;;;1.08;0.40;;;;;;;21.22;59.34;100607.02;125850;1093;22818;-65
2021/07/10 09:14:00;;;;;;;1.30;0.30;;;;;;;21.17;58.89;100594.45;125552;1093;22794;-66
2021/07/10 09:16:36;;;;;;;1.30;0.30;;;;;;;21.14;59.09;100595.56;125413;1093;22721;-66
2021/07/10 09:19:10;;;;;;;1.20;0.40;;;;;;;21.13;58.95;100594.02;125606;1093;22874;-64
2021/07/10 09:21:47;;;;;;;1.38;0.40;;;;;;;21.23;59.09;100592.27;125562;1093;22791;-68
2021/07/10 09:24:28;;;;;;;8.95;0.40;;;;;;;21.37;58.38;100590.22;125737;1093;22767;-67
2021/07/10 09:27:04;;;;;;;3.83;0.35;;;;;;;21.53;58.95;100595.57;125704;1093;26264;-68
2021/07/10 09:29:39;;;;;;;3.35;0.55;;;;;;;21.61;57.45;100598.51;125607;1093;22803;-67
2021/07/10 09:32:12;;;;;;;1.13;0.30;;;;;;;21.59;57.74;100593.38;125609;1093;27279;-63
2021/07/10 09:34:46;;;;;;;2.77;0.37;;;;;;;21.61;57.49;100599.28;125971;1093;22810;-63
2021/07/10 09:37:19;;;;;;;1.80;0.30;;;;;;;21.63;57.79;100596.66;125756;1093;22781;-63
2021/07/10 09:39:58;;;;;;;0.80;0.20;;;;;;;21.73;57.05;100594.89;125810;1092;22752;-63
2021/07/10 09:42:37;;;;;;;1.08;0.20;;;;;;;21.81;56.65;100597.82;125690;1093;25938;-67
2021/07/10 09:45:16;;;;;;;1.33;0.50;;;;;;;21.83;57.27;100592.38;125908;1093;22788;-67
2021/07/10 09:47:49;;;;;;;4.03;0.50;;;;;;;21.86;56.74;100602.66;125705;1092;22992;-68
2021/07/10 09:50:23;;;;;;;2.03;0.50;;;;;;;21.88;56.06;100597.19;125769;1092;22769;-67
2021/07/10 09:52:56;;;;;;;1.07;0.30;;;;;;;21.85;55.58;100603.22;125629;1093;22793;-67
2021/07/10 09:55:28;;;;;;;0.80;0.30;;;;;;;21.80;55.50;100599.15;125973;1093;22883;-68
2021/07/10 09:58:01;;;;;;;3.75;0.40;;;;;;;21.78;55.35;100601.78;125722;1093;22794;-67
2021/07/10 10:00:32;;;;;;;1.53;0.28;;;;;;;21.78;55.43;100598.16;125834;1093;25851;-66
2021/07/10 10:03:03;;;;;;;3.23;0.30;;;;;;;21.74;55.13;100601.34;125772;1093;24500;-65
2021/07/10 10:05:41;;;;;;;1.38;0.30;;;;;;;21.69;54.92;100597.30;125950;1093;22797;-66
2021/07/10 10:08:12;;;;;;;2.43;0.45;;;;;;;21.67;55.69;100599.16;125695;1093;27878;-63
2021/07/10 10:10:53;;;;;;;1.83;0.40;;;;;;;21.66;55.08;100601.22;125733;1093;27223;-63
2021/07/10 10:13:25;;;;;;;2.28;0.50;;;;;;;21.64;55.32;100589.64;125556;1093;25810;-63
2021/07/10 10:15:56;;;;;;;5.00;0.30;;;;;;;21.73;55.00;100599.80;125708;1093;22822;-63
2021/07/10 10:18:27;;;;;;;1.00;0.40;;;;;;;21.77;55.50;100599.48;125541;1093;22800;-63
2021/07/10 10:21:00;;;;;;;1.35;0.40;;;;;;;21.78;54.46;100606.69;125633;1093;22767;-63
2021/07/10 10:23:32;;;;;;;2.78;0.33;;;;;;;21.75;54.35;100603.63;125793;1093;22791;-65
2021/07/10 10:26:04;;;;;;;1.40;0.30;;;;;;;21.73;55.00;100608.33;125681;1092;22797;-65
2021/07/10 10:28:36;;;;;;;1.43;0.53;;;;;;;21.75;55.32;100600.79;125679;1093;22801;-63
2021/07/10 10:31:08;;;;;;;0.70;0.20;;;;;;;21.77;54.94;100603.08;125693;1093;22798;-63
2021/07/10 10:33:39;;;;;;;1.75;0.40;;;;;;;21.83;54.85;100598.06;125576;1092;22795;-63
2021/07/10 10:36:11;;;;;;;2.28;0.50;;;;;;;21.88;55.41;100594.34;125700;1093;22794;-63
2021/07/10 10:38:42;;;;;;;1.38;0.30;;;;;;;21.94;54.92;100597.84;125697;1093;22770;-64
2021/07/10 10:41:15;;;;;;;0.53;0.20;;;;;;;21.98;54.80;100597.48;125553;1093;22815;-64
2021/07/10 10:43:49;;;;;;;3.30;0.53;;;;;;;22.05;54.57;100599.67;125936;1093;22797;-62
2021/07/10 10:46:23;;;;;;;4.13;0.73;;;;;;;22.11;54.73;100597.47;125698;1092;24462;-63
2021/07/10 10:48:55;;;;;;;1.08;0.30;;;;;;;22.25;55.40;100593.27;125702;1093;23984;-64
2021/07/10 10:51:29;;;;;;;2.10;0.30;;;;;;;22.39;54.89;100594.73;125599;1093;22775;-63
2021/07/10 10:54:28;;;;;;;4.83;0.50;;;;;;;22.42;54.50;100600.10;125713;1092;22797;-64
2021/07/10 10:57:10;;;;;;;4.75;0.58;;;;;;;22.48;55.27;100594.27;125364;1092;22791;-64
2021/07/10 10:59:43;;;;;;;1.20;0.30;;;;;;;22.53;54.33;100596.97;125986;1093;23360;-64
2021/07/10 11:02:49;;;;;;;1.80;0.40;;;;;;;22.52;54.34;100595.45;125911;1093;22820;-64
2021/07/10 11:05:54;;;;;;;3.28;0.60;;;;;;;22.51;54.27;100599.61;125593;1093;22787;-65
2021/07/10 11:08:50;;;;;;;2.10;0.40;;;;;;;22.45;54.51;100592.55;125637;1093;22861;-64
2021/07/10 11:11:35;;;;;;;2.10;0.50;;;;;;;22.48;54.32;100594.27;125543;1092;23696;-61
2021/07/10 11:14:15;;;;;;;5.33;0.40;;;;;;;22.59;54.47;100590.42;125641;1093;22773;-62
2021/07/10 11:17:07;;;;;;;;;;;;;;;22.71;53.41;100588.83;125833;1093;22820;-62
2021/07/10 11:19:58;;;;;;;2.15;0.45;;;;;;;22.77;53.84;100589.45;125407;1096;21707;-62
2021/07/10 11:23:02;;;;;;;3.18;0.33;;;;;;;22.80;52.55;100591.94;125488;1096;22858;-62
2021/07/10 11:26:09;;;;;;;1.13;0.38;;;;;;;22.73;52.29;100589.03;125730;1095;26543;-62
2021/07/10 11:28:52;;;;;;;1.23;0.30;;;;;;;22.64;52.55;100590.28;125477;1095;22930;-61
2021/07/10 11:31:28;;;;;;;2.70;0.40;;;;;;;22.59;52.78;100593.27;125681;1097;22794;-63
2021/07/10 11:34:08;;;;;;;1.28;0.40;;;;;;;22.61;52.74;100582.87;126038;1096;22832;-63
2021/07/10 11:37:12;;;;;;;2.78;0.43;;;;;;;22.79;53.88;100587.58;125957;1096;26981;-62
2021/07/10 11:39:52;;;;;;;3.55;0.30;;;;;;;22.97;53.77;100583.73;125468;1096;26873;-61
2021/07/10 11:42:41;;;;;;;;;;;;;;;23.04;53.31;100576.58;125438;1096;24494;-61
2021/07/10 11:45:47;;;;;;;2.95;0.38;;;;;;;23.09;53.37;100576.42;125489;1096;21533;-61
2021/07/10 11:48:28;;;;;;;1.70;0.30;;;;;;;23.12;53.40;100569.63;125696;1096;22869;-61